Time;durP1;ratioP1;P1;durP2;ratioP2;P2;SDS_P1;SDS_P2;PMS_P1;PMS_P2;Temp;Humidity;BMP_temperature;BMP_pressure;BME280_temperature;BME280_humidity;BME280_pressure;Samples;Min_cycle;Max_cycle;Signal;HPM_P1;HPM_P2
2022/01/21 00:00:30;;;;;;;15.27;2.92;;;;;;;;;;5129159;27;20062;-64
2022/01/21 00:02:56;;;;;;;9.10;1.75;;;;;;;;;;5129266;27;20054;-63
2022/01/21 00:05:23;;;;;;;10.25;1.92;;;;;;;;;;5128971;27;20109;-64
2022/01/21 00:07:50;;;;;;;13.88;2.33;;;;;;;;;;5148291;27;20058;-64
2022/01/21 00:10:16;;;;;;;20.52;2.92;;;;;;;;;;5149697;27;20138;-63
2022/01/21 00:12:43;;;;;;;18.00;3.45;;;;;;;;;;5149262;27;20098;-63
2022/01/21 00:15:10;;;;;;;17.48;2.92;;;;;;;;;;5149029;27;20055;-63
2022/01/21 00:17:37;;;;;;;9.50;2.25;;;;;;;;;;5149567;27;20612;-63
2022/01/21 00:31:05;;;;;;;11.90;2.50;;;;;;;;;;5148663;27;20059;-62
2022/01/21 00:33:32;;;;;;;19.77;2.80;;;;;;;;;;5149007;27;20059;-63
2022/01/21 00:35:59;;;;;;;14.68;2.60;;;;;;;;;;5148514;27;20055;-63
2022/01/21 00:38:28;;;;;;;9.00;2.47;;;;;;;;;;5149196;27;20047;-63
2022/01/21 00:41:00;;;;;;;16.17;2.30;;;;;;;;;;5148212;27;20142;-65
2022/01/21 00:43:31;;;;;;;14.50;2.88;;;;;;;;;;5137084;27;20043;-62
2022/01/21 00:45:58;;;;;;;10.30;2.00;;;;;;;;;;5127800;27;20372;-63
2022/01/21 00:48:25;;;;;;;12.93;2.28;;;;;;;;;;5129299;27;20082;-63
2022/01/21 00:50:52;;;;;;;17.33;2.53;;;;;;;;;;5134710;27;20052;-63
2022/01/21 00:53:18;;;;;;;12.63;2.45;;;;;;;;;;5140434;27;20078;-63
2022/01/21 00:55:45;;;;;;;14.35;2.15;;;;;;;;;;5149188;27;20089;-63
2022/01/21 00:58:11;;;;;;;9.90;1.70;;;;;;;;;;5143504;27;20051;-65
2022/01/21 01:00:37;;;;;;;17.98;2.60;;;;;;;;;;5151762;27;20047;-63
2022/01/21 01:03:04;;;;;;;15.45;2.00;;;;;;;;;;5150901;27;20641;-63
2022/01/21 01:05:31;;;;;;;15.98;2.88;;;;;;;;;;5140657;27;20054;-64
2022/01/21 01:07:59;;;;;;;21.00;2.28;;;;;;;;;;5151597;27;20055;-63
2022/01/21 01:10:41;;;;;;;19.65;2.20;;;;;;;;;;5136888;27;20048;-63
2022/01/21 01:21:22;;;;;;;9.35;2.10;;;;;;;;;;5147163;27;20142;-63
2022/01/21 01:27:34;;;;;;;11.02;1.58;;;;;;;;;;5150377;27;20053;-63
2022/01/21 01:29:32;;;;;;;17.75;2.63;;;;;;;;;;5131034;27;20048;-63
2022/01/21 01:31:58;;;;;;;15.80;2.28;;;;;;;;;;5147094;27;20050;-63
2022/01/21 01:34:25;;;;;;;12.68;1.65;;;;;;;;;;5173154;27;20050;-63
2022/01/21 01:36:57;;;;;;;13.68;1.80;;;;;;;;;;5162307;27;20063;-63
2022/01/21 01:50:05;;;;;;;7.63;1.55;;;;;;;;;;5172044;27;20046;-63
2022/01/21 01:52:32;;;;;;;11.20;1.77;;;;;;;;;;5172827;27;20059;-63
2022/01/21 01:54:58;;;;;;;10.43;1.52;;;;;;;;;;5172106;27;20052;-63
2022/01/21 01:57:25;;;;;;;18.42;1.75;;;;;;;;;;5171879;27;20054;-64
2022/01/21 01:59:51;;;;;;;12.40;1.83;;;;;;;;;;5171824;27;20061;-63
2022/01/21 02:02:18;;;;;;;8.73;1.88;;;;;;;;;;5159452;27;20428;-63
2022/01/21 02:04:46;;;;;;;10.90;1.85;;;;;;;;;;5134128;27;20476;-64
2022/01/21 02:07:13;;;;;;;9.15;1.50;;;;;;;;;;5144921;27;20493;-63
2022/01/21 02:09:39;;;;;;;12.00;1.58;;;;;;;;;;5150187;27;20053;-63
2022/01/21 02:12:06;;;;;;;18.80;2.55;;;;;;;;;;5130360;27;20055;-63
2022/01/21 02:14:38;;;;;;;12.43;1.83;;;;;;;;;;5130565;27;20056;-63
2022/01/21 02:21:29;;;;;;;10.93;2.03;;;;;;;;;;5134167;27;20143;-63
2022/01/21 02:22:50;;;;;;;13.70;2.28;;;;;;;;;;5142479;27;20136;-63
2022/01/21 02:25:19;;;;;;;8.40;1.42;;;;;;;;;;5130477;27;20154;-63
2022/01/21 02:27:47;;;;;;;7.13;1.38;;;;;;;;;;5129482;27;20057;-63
2022/01/21 02:30:18;;;;;;;11.48;2.53;;;;;;;;;;5129389;27;20055;-63
2022/01/21 02:32:49;;;;;;;17.23;1.92;;;;;;;;;;5130488;27;20059;-63
2022/01/21 02:35:16;;;;;;;17.92;1.75;;;;;;;;;;5129767;27;20056;-63
2022/01/21 02:37:42;;;;;;;13.98;2.10;;;;;;;;;;5130654;27;20058;-63
2022/01/21 02:40:10;;;;;;;10.38;1.80;;;;;;;;;;5129661;27;20433;-63
2022/01/21 02:42:37;;;;;;;13.25;1.80;;;;;;;;;;5130127;27;20055;-63
2022/01/21 02:45:03;;;;;;;15.60;1.70;;;;;;;;;;5129159;27;20160;-63
2022/01/21 02:47:30;;;;;;;18.65;1.77;;;;;;;;;;5130126;27;20054;-63
2022/01/21 02:49:56;;;;;;;7.28;1.33;;;;;;;;;;5129826;27;20074;-64
2022/01/21 02:52:26;;;;;;;11.35;1.63;;;;;;;;;;5129127;27;20051;-63
2022/01/21 02:54:53;;;;;;;6.32;1.60;;;;;;;;;;5129335;27;20499;-63
2022/01/21 02:57:19;;;;;;;10.80;1.80;;;;;;;;;;5129897;27;20066;-63
2022/01/21 02:59:45;;;;;;;7.03;1.33;;;;;;;;;;5129356;27;20054;-63
2022/01/21 03:02:13;;;;;;;11.60;1.55;;;;;;;;;;5129790;27;20123;-63
2022/01/21 03:07:12;;;;;;;9.85;1.42;;;;;;;;;;5131459;27;20058;-63
2022/01/21 03:09:38;;;;;;;8.38;1.70;;;;;;;;;;5137563;27;20057;-63
2022/01/21 03:12:05;;;;;;;4.70;0.90;;;;;;;;;;5137879;27;20126;-63
2022/01/21 03:14:31;;;;;;;10.95;1.60;;;;;;;;;;5150151;27;20108;-63
2022/01/21 03:16:57;;;;;;;9.70;1.20;;;;;;;;;;5148938;27;21399;-63
2022/01/21 03:19:24;;;;;;;14.50;1.88;;;;;;;;;;5147651;27;20112;-63
2022/01/21 03:21:50;;;;;;;13.88;1.70;;;;;;;;;;5137748;27;20127;-63
2022/01/21 03:24:16;;;;;;;12.25;1.30;;;;;;;;;;5139051;27;20509;-63
2022/01/21 03:26:43;;;;;;;7.60;1.55;;;;;;;;;;5150118;27;20145;-63
2022/01/21 03:29:09;;;;;;;8.98;1.17;;;;;;;;;;5133161;27;20612;-63
2022/01/21 03:31:35;;;;;;;12.30;2.38;;;;;;;;;;5129430;27;20520;-63
2022/01/21 03:34:02;;;;;;;13.00;1.58;;;;;;;;;;5129445;27;20139;-63
2022/01/21 03:36:29;;;;;;;13.57;1.77;;;;;;;;;;5141673;27;20142;-63
2022/01/21 03:38:56;;;;;;;10.40;1.35;;;;;;;;;;5129139;27;20055;-63
2022/01/21 03:41:22;;;;;;;9.02;1.58;;;;;;;;;;5128179;27;20079;-63
2022/01/21 03:43:49;;;;;;;9.73;1.30;;;;;;;;;;5128892;27;20059;-63
2022/01/21 03:46:16;;;;;;;9.57;1.58;;;;;;;;;;5129867;27;20052;-64
2022/01/21 03:48:46;;;;;;;10.27;1.65;;;;;;;;;;5129111;27;20054;-63
2022/01/21 03:51:13;;;;;;;6.95;1.35;;;;;;;;;;5129003;27;20055;-63
2022/01/21 03:53:39;;;;;;;7.18;0.93;;;;;;;;;;5129257;27;20062;-63
2022/01/21 03:56:06;;;;;;;13.70;1.83;;;;;;;;;;5129235;27;20055;-63
2022/01/21 03:58:32;;;;;;;9.10;1.42;;;;;;;;;;5128772;27;20101;-63
2022/01/21 04:00:59;;;;;;;11.40;1.50;;;;;;;;;;5128916;27;20182;-63
2022/01/21 04:03:26;;;;;;;12.68;1.40;;;;;;;;;;5129199;27;20056;-63
2022/01/21 04:05:53;;;;;;;12.05;1.77;;;;;;;;;;5127307;27;20070;-64
2022/01/21 04:08:20;;;;;;;14.02;1.52;;;;;;;;;;5129388;27;20052;-63
2022/01/21 04:10:48;;;;;;;8.18;1.08;;;;;;;;;;5128775;27;20058;-63
2022/01/21 04:13:16;;;;;;;13.40;1.55;;;;;;;;;;5128657;27;20047;-63
2022/01/21 04:15:43;;;;;;;10.27;1.90;;;;;;;;;;5127379;27;20057;-63
2022/01/21 04:18:11;;;;;;;9.57;1.35;;;;;;;;;;5147650;27;20570;-63
2022/01/21 04:20:37;;;;;;;9.13;1.73;;;;;;;;;;5149574;27;20137;-63
2022/01/21 04:23:03;;;;;;;8.68;1.73;;;;;;;;;;5137564;27;20140;-63
2022/01/21 04:25:30;;;;;;;7.32;1.58;;;;;;;;;;5132825;27;20055;-63
2022/01/21 04:27:57;;;;;;;11.55;1.60;;;;;;;;;;5140270;27;20049;-63
2022/01/21 04:30:23;;;;;;;8.80;1.40;;;;;;;;;;5131727;27;20059;-63
2022/01/21 04:32:49;;;;;;;7.03;1.15;;;;;;;;;;5141539;27;20597;-64
2022/01/21 04:35:16;;;;;;;7.60;1.25;;;;;;;;;;5153357;27;20150;-63
2022/01/21 04:37:50;;;;;;;10.15;1.35;;;;;;;;;;5149506;27;20050;-64
2022/01/21 04:40:19;;;;;;;7.13;1.23;;;;;;;;;;5151475;27;20051;-63
2022/01/21 04:48:15;;;;;;;5.47;0.85;;;;;;;;;;5138303;27;20149;-63
2022/01/21 04:50:53;;;;;;;9.23;1.25;;;;;;;;;;5141748;27;20066;-63
2022/01/21 04:53:20;;;;;;;7.95;1.45;;;;;;;;;;5153239;27;20120;-63
2022/01/21 04:55:47;;;;;;;9.65;1.15;;;;;;;;;;5133086;27;20508;-63
2022/01/21 04:58:13;;;;;;;12.55;1.30;;;;;;;;;;5131249;27;20058;-63
2022/01/21 05:00:40;;;;;;;12.43;1.35;;;;;;;;;;5131586;27;20494;-64
2022/01/21 05:03:06;;;;;;;8.27;1.00;;;;;;;;;;5131992;27;20048;-63
2022/01/21 05:05:33;;;;;;;9.13;1.42;;;;;;;;;;5131511;27;20062;-63
2022/01/21 05:08:04;;;;;;;8.75;1.25;;;;;;;;;;5150816;27;20517;-63
2022/01/21 05:10:34;;;;;;;5.43;1.27;;;;;;;;;;5139210;27;20060;-64
2022/01/21 05:13:00;;;;;;;8.82;1.65;;;;;;;;;;5151748;27;20166;-63
2022/01/21 05:15:58;;;;;;;9.50;1.52;;;;;;;;;;5151957;27;20485;-63
2022/01/21 05:18:25;;;;;;;16.60;1.73;;;;;;;;;;5152577;27;20058;-63
2022/01/21 05:20:51;;;;;;;9.43;1.52;;;;;;;;;;5151114;27;20058;-63
2022/01/21 05:23:18;;;;;;;16.73;1.77;;;;;;;;;;5151678;27;20058;-63
2022/01/21 05:25:44;;;;;;;10.68;1.20;;;;;;;;;;5136581;27;20059;-63
2022/01/21 05:28:11;;;;;;;11.90;1.55;;;;;;;;;;5145180;27;20356;-63
2022/01/21 05:30:37;;;;;;;14.70;2.55;;;;;;;;;;5130731;27;20054;-63
2022/01/21 05:33:04;;;;;;;11.85;1.48;;;;;;;;;;5131204;27;20052;-63
2022/01/21 05:35:30;;;;;;;9.90;1.60;;;;;;;;;;5129646;27;20163;-63
2022/01/21 05:37:56;;;;;;;14.32;2.10;;;;;;;;;;5129959;27;20047;-63
2022/01/21 05:40:24;;;;;;;9.63;1.60;;;;;;;;;;5130171;27;20051;-63
2022/01/21 05:42:51;;;;;;;9.80;1.93;;;;;;;;;;5135730;27;20047;-63
2022/01/21 05:48:03;;;;;;;11.95;2.70;;;;;;;;;;5144066;27;20048;-64
2022/01/21 05:50:29;;;;;;;11.13;1.83;;;;;;;;;;5137778;27;20047;-63
2022/01/21 05:52:56;;;;;;;12.70;2.65;;;;;;;;;;5141720;27;20474;-63
2022/01/21 05:55:22;;;;;;;11.25;1.70;;;;;;;;;;5149533;27;20051;-63
2022/01/21 05:57:49;;;;;;;8.48;1.38;;;;;;;;;;5132402;27;20062;-63
2022/01/21 06:00:15;;;;;;;12.70;1.67;;;;;;;;;;5138120;27;20142;-63
2022/01/21 06:02:42;;;;;;;9.82;1.50;;;;;;;;;;5141999;27;20100;-63
2022/01/21 06:05:08;;;;;;;8.32;1.05;;;;;;;;;;5149813;27;20474;-63
2022/01/21 06:07:35;;;;;;;11.93;1.50;;;;;;;;;;5149096;27;20057;-63
2022/01/21 06:10:01;;;;;;;10.10;2.10;;;;;;;;;;5138952;27;20048;-63
2022/01/21 06:12:27;;;;;;;14.50;1.90;;;;;;;;;;5130330;27;20186;-64
2022/01/21 06:14:53;;;;;;;6.32;1.13;;;;;;;;;;5145087;27;20133;-64
2022/01/21 06:17:20;;;;;;;7.95;1.50;;;;;;;;;;5137397;27;20051;-63
2022/01/21 06:19:46;;;;;;;10.68;1.50;;;;;;;;;;5150671;27;20268;-63
2022/01/21 06:22:15;;;;;;;13.10;1.42;;;;;;;;;;5150950;27;20047;-63
2022/01/21 06:24:41;;;;;;;13.20;2.20;;;;;;;;;;5151004;27;20057;-64
2022/01/21 06:27:07;;;;;;;4.93;1.20;;;;;;;;;;5150870;27;20049;-64
2022/01/21 06:29:34;;;;;;;9.38;1.50;;;;;;;;;;5151220;27;20051;-63
2022/01/21 06:32:00;;;;;;;13.07;1.27;;;;;;;;;;5138940;27;20055;-63
2022/01/21 06:34:26;;;;;;;9.18;1.55;;;;;;;;;;5137931;27;20098;-63
2022/01/21 06:36:52;;;;;;;8.45;1.50;;;;;;;;;;5146459;27;20142;-63
2022/01/21 06:39:19;;;;;;;9.20;1.75;;;;;;;;;;5133266;27;20940;-64
2022/01/21 06:41:47;;;;;;;9.73;1.52;;;;;;;;;;5148813;27;20146;-63
2022/01/21 06:44:13;;;;;;;6.97;1.30;;;;;;;;;;5144156;27;20054;-63
2022/01/21 06:46:41;;;;;;;13.25;1.60;;;;;;;;;;5139971;27;20052;-63
2022/01/21 06:49:07;;;;;;;6.93;1.25;;;;;;;;;;5134899;27;20058;-64
2022/01/21 06:51:34;;;;;;;10.10;1.42;;;;;;;;;;5131620;27;20650;-63
2022/01/21 06:54:00;;;;;;;15.45;1.70;;;;;;;;;;5148016;27;20057;-63
2022/01/21 06:56:26;;;;;;;14.65;2.33;;;;;;;;;;5137918;27;20074;-63
2022/01/21 06:58:52;;;;;;;8.95;1.80;;;;;;;;;;5132939;27;20051;-63
2022/01/21 07:01:23;;;;;;;13.27;2.20;;;;;;;;;;5129476;27;20079;-64
2022/01/21 07:03:50;;;;;;;7.55;1.50;;;;;;;;;;5128555;27;20052;-63
2022/01/21 07:06:16;;;;;;;9.23;1.67;;;;;;;;;;5128901;27;20054;-63
2022/01/21 07:08:43;;;;;;;12.05;1.70;;;;;;;;;;5128887;27;20859;-63
2022/01/21 07:11:09;;;;;;;7.60;1.85;;;;;;;;;;5128750;27;20047;-64
2022/01/21 07:13:35;;;;;;;10.25;2.00;;;;;;;;;;5141455;27;20134;-62
2022/01/21 07:16:02;;;;;;;9.50;2.08;;;;;;;;;;5142816;27;20053;-62
2022/01/21 07:18:28;;;;;;;12.65;2.35;;;;;;;;;;5147896;27;20513;-63
2022/01/21 07:20:55;;;;;;;11.40;2.13;;;;;;;;;;5149037;27;20059;-63
2022/01/21 07:23:21;;;;;;;12.40;1.90;;;;;;;;;;5148555;27;20107;-63
2022/01/21 07:25:48;;;;;;;8.75;1.33;;;;;;;;;;5149181;27;20079;-63
2022/01/21 07:28:14;;;;;;;21.40;2.33;;;;;;;;;;5149468;27;20053;-63
2022/01/21 07:30:41;;;;;;;12.43;1.75;;;;;;;;;;5150152;27;20066;-63
2022/01/21 07:33:08;;;;;;;8.00;1.40;;;;;;;;;;5149446;27;20151;-63
2022/01/21 07:35:34;;;;;;;9.07;1.52;;;;;;;;;;5149219;27;20047;-62
2022/01/21 07:38:09;;;;;;;11.02;1.58;;;;;;;;;;5149418;27;20505;-63
2022/01/21 07:40:36;;;;;;;10.30;2.08;;;;;;;;;;5148900;27;20150;-63
2022/01/21 07:43:02;;;;;;;9.38;1.52;;;;;;;;;;5138112;27;20379;-63
2022/01/21 07:45:29;;;;;;;10.73;1.95;;;;;;;;;;5148387;27;20073;-63
2022/01/21 07:47:55;;;;;;;6.60;1.58;;;;;;;;;;5148322;27;20047;-63
2022/01/21 07:50:22;;;;;;;8.05;1.40;;;;;;;;;;5149317;27;20558;-63
2022/01/21 07:52:48;;;;;;;12.35;1.50;;;;;;;;;;5149230;27;20051;-63
2022/01/21 07:55:15;;;;;;;9.63;1.83;;;;;;;;;;5148598;27;20204;-63
2022/01/21 07:57:44;;;;;;;5.53;1.95;;;;;;;;;;5146738;27;20513;-63
2022/01/21 08:00:10;;;;;;;10.85;2.10;;;;;;;;;;5135102;27;20086;-63
2022/01/21 08:02:37;;;;;;;11.20;2.10;;;;;;;;;;5138561;27;20138;-63
2022/01/21 08:05:05;;;;;;;11.75;1.98;;;;;;;;;;5139354;27;20051;-63
2022/01/21 08:07:31;;;;;;;6.63;1.50;;;;;;;;;;5146432;27;20057;-63
2022/01/21 08:09:58;;;;;;;10.05;2.03;;;;;;;;;;5140870;27;20134;-63
2022/01/21 08:12:24;;;;;;;9.43;2.08;;;;;;;;;;5143943;27;20598;-64
2022/01/21 08:14:50;;;;;;;15.07;2.85;;;;;;;;;;5137882;27;20055;-65
2022/01/21 08:17:17;;;;;;;12.10;2.65;;;;;;;;;;5138781;27;20150;-63
2022/01/21 08:19:43;;;;;;;8.85;2.75;;;;;;;;;;5135962;27;20047;-64
2022/01/21 08:22:09;;;;;;;10.13;1.92;;;;;;;;;;5134905;27;20051;-63
2022/01/21 08:24:36;;;;;;;14.38;2.90;;;;;;;;;;5139951;27;20052;-63
2022/01/21 08:27:02;;;;;;;11.93;2.72;;;;;;;;;;5144358;27;20047;-64
2022/01/21 08:29:33;;;;;;;12.48;3.42;;;;;;;;;;5139799;27;20101;-65
2022/01/21 08:31:59;;;;;;;19.77;4.40;;;;;;;;;;5144016;27;20053;-64
2022/01/21 08:34:25;;;;;;;16.42;3.55;;;;;;;;;;5134059;27;20475;-65
2022/01/21 08:36:54;;;;;;;13.25;3.28;;;;;;;;;;5133753;27;20093;-65
2022/01/21 08:39:20;;;;;;;13.55;3.50;;;;;;;;;;5142613;27;20079;-65
2022/01/21 08:41:46;;;;;;;14.43;3.10;;;;;;;;;;5136339;27;20094;-64
2022/01/21 08:44:13;;;;;;;15.20;2.58;;;;;;;;;;5137948;27;20062;-64
2022/01/21 08:46:39;;;;;;;14.23;2.72;;;;;;;;;;5132347;27;20048;-65
2022/01/21 08:49:25;;;;;;;7.97;3.00;;;;;;;;;;5131410;27;20063;-63
2022/01/21 08:51:55;;;;;;;14.27;3.03;;;;;;;;;;5131582;27;20047;-65
2022/01/21 08:54:21;;;;;;;10.88;3.40;;;;;;;;;;5134336;27;20133;-65
2022/01/21 08:56:49;;;;;;;18.05;3.58;;;;;;;;;;5131370;27;20058;-65
2022/01/21 08:59:16;;;;;;;12.63;3.17;;;;;;;;;;5131622;27;20054;-66
2022/01/21 09:01:43;;;;;;;13.13;2.90;;;;;;;;;;5131196;27;20482;-66
2022/01/21 09:04:10;;;;;;;11.75;2.90;;;;;;;;;;5131835;27;20090;-66
2022/01/21 09:06:36;;;;;;;10.65;2.85;;;;;;;;;;5132408;27;20180;-65
2022/01/21 09:09:04;;;;;;;12.65;2.30;;;;;;;;;;5143001;27;20082;-66
2022/01/21 09:11:30;;;;;;;8.60;2.38;;;;;;;;;;5117747;27;20043;-65
2022/01/21 09:13:57;;;;;;;15.65;2.47;;;;;;;;;;5151435;27;20055;-63
2022/01/21 09:16:24;;;;;;;17.13;2.80;;;;;;;;;;5141164;27;20449;-65
2022/01/21 09:18:55;;;;;;;10.53;2.23;;;;;;;;;;5132858;27;20628;-66
2022/01/21 09:21:32;;;;;;;9.73;2.10;;;;;;;;;;5142066;27;20049;-65
2022/01/21 09:23:58;;;;;;;16.35;2.65;;;;;;;;;;5140144;27;20056;-65
2022/01/21 09:26:25;;;;;;;14.65;3.05;;;;;;;;;;5135395;27;20166;-65
2022/01/21 09:28:54;;;;;;;17.65;2.80;;;;;;;;;;5138711;27;20159;-65
2022/01/21 09:31:20;;;;;;;20.60;3.20;;;;;;;;;;5136845;27;20153;-65
2022/01/21 09:34:06;;;;;;;16.33;2.65;;;;;;;;;;5134174;27;20135;-65
2022/01/21 09:36:32;;;;;;;12.73;2.78;;;;;;;;;;5139018;27;20151;-65
2022/01/21 09:39:00;;;;;;;19.30;2.95;;;;;;;;;;5139000;27;20093;-65
2022/01/21 09:41:28;;;;;;;17.02;2.67;;;;;;;;;;5134052;27;20053;-65
2022/01/21 09:43:55;;;;;;;17.08;2.53;;;;;;;;;;5142111;27;20891;-65
2022/01/21 09:46:31;;;;;;;12.77;3.08;;;;;;;;;;5135969;27;20062;-65
2022/01/21 09:49:07;;;;;;;13.82;2.45;;;;;;;;;;5141379;27;20063;-65
2022/01/21 09:51:34;;;;;;;12.60;2.60;;;;;;;;;;5142164;27;20484;-65
2022/01/21 09:54:02;;;;;;;17.33;3.00;;;;;;;;;;5162719;27;20059;-65
2022/01/21 09:56:29;;;;;;;13.85;2.47;;;;;;;;;;5138363;27;20051;-65
2022/01/21 09:58:57;;;;;;;20.02;2.67;;;;;;;;;;5141061;27;20513;-64
2022/01/21 10:01:24;;;;;;;17.95;2.50;;;;;;;;;;5152272;27;20406;-65
2022/01/21 10:03:50;;;;;;;21.73;2.55;;;;;;;;;;5158587;27;20047;-65
2022/01/21 10:06:17;;;;;;;18.02;3.35;;;;;;;;;;5151606;27;20058;-64
2022/01/21 10:08:44;;;;;;;17.13;2.50;;;;;;;;;;5132898;27;20417;-64
2022/01/21 10:11:11;;;;;;;19.35;2.65;;;;;;;;;;5132490;27;20065;-64
2022/01/21 10:13:38;;;;;;;14.05;2.63;;;;;;;;;;5141794;27;20058;-64
2022/01/21 10:16:05;;;;;;;28.20;3.28;;;;;;;;;;5139010;27;20051;-64
2022/01/21 10:18:36;;;;;;;23.27;3.08;;;;;;;;;;5147228;27;20058;-64
2022/01/21 10:21:07;;;;;;;21.73;3.25;;;;;;;;;;5152653;27;20104;-64
2022/01/21 10:23:35;;;;;;;20.27;2.55;;;;;;;;;;5147253;27;20050;-64
2022/01/21 10:26:09;;;;;;;33.92;3.78;;;;;;;;;;5135011;27;20090;-65
2022/01/21 10:28:36;;;;;;;17.85;2.40;;;;;;;;;;5140989;27;20047;-64
2022/01/21 10:31:24;;;;;;;15.65;2.88;;;;;;;;;;5154148;27;20079;-64
2022/01/21 10:33:53;;;;;;;23.10;3.40;;;;;;;;;;5163706;27;20577;-64
2022/01/21 10:36:30;;;;;;;16.60;3.15;;;;;;;;;;5156361;27;20056;-64
2022/01/21 10:39:04;;;;;;;23.45;3.10;;;;;;;;;;5137524;27;20051;-64
2022/01/21 10:41:31;;;;;;;20.52;2.88;;;;;;;;;;5160877;27;20078;-65
2022/01/21 10:44:02;;;;;;;22.90;3.42;;;;;;;;;;5154074;27;20151;-65
2022/01/21 10:46:29;;;;;;;32.80;4.10;;;;;;;;;;5158359;27;20051;-65
2022/01/21 10:49:09;;;;;;;18.58;3.45;;;;;;;;;;5139953;27;20092;-65
2022/01/21 10:51:36;;;;;;;16.77;3.25;;;;;;;;;;5165082;27;20061;-64
2022/01/21 10:54:26;;;;;;;19.90;3.80;;;;;;;;;;5114419;27;20502;-65
2022/01/21 10:57:10;;;;;;;21.67;4.30;;;;;;;;;;5133539;27;20044;-65
2022/01/21 10:59:48;;;;;;;19.55;3.13;;;;;;;;;;5148684;27;20137;-65
2022/01/21 11:02:14;;;;;;;12.48;2.88;;;;;;;;;;5153213;27;20899;-64
2022/01/21 11:04:42;;;;;;;23.50;3.40;;;;;;;;;;5145138;27;20675;-65
2022/01/21 11:07:11;;;;;;;17.13;3.35;;;;;;;;;;5157275;27;20146;-65
2022/01/21 11:09:40;;;;;;;19.00;3.70;;;;;;;;;;5145130;27;20051;-65
2022/01/21 11:12:07;;;;;;;21.60;4.45;;;;;;;;;;5143222;27;20051;-65
2022/01/21 11:14:36;;;;;;;14.68;2.85;;;;;;;;;;5137943;27;20060;-65
2022/01/21 11:17:16;;;;;;;17.65;3.08;;;;;;;;;;5137775;27;20771;-64
2022/01/21 11:20:21;;;;;;;23.08;3.03;;;;;;;;;;5154131;27;20059;-65
2022/01/21 11:22:54;;;;;;;22.55;3.38;;;;;;;;;;5117030;27;20048;-65
2022/01/21 11:26:04;;;;;;;20.30;2.85;;;;;;;;;;5154803;27;20096;-65
2022/01/21 11:28:33;;;;;;;18.67;2.38;;;;;;;;;;5046001;28;20136;-65
2022/01/21 11:30:59;;;;;;;13.02;2.72;;;;;;;;;;5043852;28;20111;-65
2022/01/21 11:33:26;;;;;;;10.77;2.30;;;;;;;;;;5108686;27;20065;-65
2022/01/21 11:35:52;;;;;;;25.23;3.65;;;;;;;;;;5141706;27;20083;-65
2022/01/21 11:38:20;;;;;;;13.93;2.60;;;;;;;;;;5144851;27;20050;-65
2022/01/21 11:40:48;;;;;;;15.90;3.40;;;;;;;;;;5138343;27;20051;-65
2022/01/21 11:43:15;;;;;;;14.57;2.42;;;;;;;;;;5165753;27;20612;-64
2022/01/21 11:51:23;;;;;;;14.20;2.33;;;;;;;;;;5140432;27;20076;-64
2022/01/21 11:53:51;;;;;;;13.13;2.38;;;;;;;;;;5148679;27;20057;-65
2022/01/21 11:56:37;;;;;;;14.13;2.80;;;;;;;;;;5152784;27;20051;-64
2022/01/21 11:59:05;;;;;;;18.23;2.80;;;;;;;;;;5128050;27;20507;-64
2022/01/21 12:01:33;;;;;;;11.75;2.17;;;;;;;;;;5129326;27;20054;-64
2022/01/21 12:04:03;;;;;;;13.73;2.22;;;;;;;;;;5129148;27;20167;-64
2022/01/21 12:06:31;;;;;;;19.50;1.98;;;;;;;;;;5134740;27;20096;-65
2022/01/21 12:08:59;;;;;;;13.13;2.08;;;;;;;;;;5133484;27;20054;-65
2022/01/21 12:11:29;;;;;;;13.93;2.13;;;;;;;;;;5135174;27;20051;-65
2022/01/21 12:13:55;;;;;;;14.65;2.00;;;;;;;;;;5130731;27;20783;-65
2022/01/21 12:16:46;;;;;;;9.13;1.73;;;;;;;;;;5137107;27;20047;-65
2022/01/21 12:19:22;;;;;;;11.07;2.58;;;;;;;;;;5132010;27;20055;-65
2022/01/21 12:21:48;;;;;;;15.93;1.90;;;;;;;;;;5134031;27;20058;-65
2022/01/21 12:24:16;;;;;;;17.65;2.00;;;;;;;;;;5133551;27;20047;-64
2022/01/21 12:26:58;;;;;;;16.10;1.83;;;;;;;;;;5135086;27;20048;-66
2022/01/21 12:29:27;;;;;;;21.33;2.10;;;;;;;;;;5130981;27;20055;-66
2022/01/21 12:32:05;;;;;;;20.73;2.60;;;;;;;;;;5130580;27;20448;-64
2022/01/21 12:34:50;;;;;;;12.07;1.45;;;;;;;;;;5132916;27;20056;-64
2022/01/21 12:37:23;;;;;;;17.70;2.58;;;;;;;;;;5135370;27;20043;-64
2022/01/21 12:39:49;;;;;;;21.10;2.70;;;;;;;;;;5139318;27;20051;-64
2022/01/21 12:42:25;;;;;;;10.90;2.15;;;;;;;;;;5137898;27;20056;-63
2022/01/21 12:44:51;;;;;;;15.82;1.88;;;;;;;;;;5142496;27;20047;-64
2022/01/21 12:47:31;;;;;;;10.13;1.83;;;;;;;;;;5138852;27;20083;-64
2022/01/21 12:50:05;;;;;;;15.13;2.03;;;;;;;;;;5137503;27;21962;-63
2022/01/21 12:52:55;;;;;;;13.82;2.00;;;;;;;;;;5133264;27;20062;-64
2022/01/21 12:58:06;;;;;;;12.80;1.65;;;;;;;;;;5136060;27;20583;-65
2022/01/21 13:00:32;;;;;;;13.75;2.05;;;;;;;;;;5138598;27;20055;-65
2022/01/21 13:03:03;;;;;;;11.43;2.25;;;;;;;;;;5130718;27;20055;-65
2022/01/21 13:05:38;;;;;;;17.73;2.13;;;;;;;;;;5140711;27;20623;-65
2022/01/21 13:08:10;;;;;;;16.70;2.60;;;;;;;;;;5142439;27;20097;-65
2022/01/21 13:10:38;;;;;;;14.15;1.92;;;;;;;;;;5156752;27;20056;-65
2022/01/21 13:15:39;;;;;;;19.38;2.65;;;;;;;;;;5159571;27;20093;-66
2022/01/21 13:18:05;;;;;;;12.15;1.70;;;;;;;;;;5139906;27;22029;-66
2022/01/21 13:20:32;;;;;;;14.65;1.80;;;;;;;;;;5148173;27;20050;-66
2022/01/21 13:22:59;;;;;;;8.73;2.33;;;;;;;;;;5143464;27;20120;-67
2022/01/21 13:25:26;;;;;;;11.55;1.90;;;;;;;;;;5142463;27;20055;-69
2022/01/21 13:27:53;;;;;;;10.60;1.60;;;;;;;;;;5159393;27;20049;-66
2022/01/21 13:30:22;;;;;;;12.80;1.75;;;;;;;;;;5133897;27;20527;-66
2022/01/21 13:32:57;;;;;;;14.10;2.38;;;;;;;;;;5131670;27;20421;-67
2022/01/21 13:35:25;;;;;;;10.63;1.75;;;;;;;;;;5136544;27;20061;-68
2022/01/21 13:38:05;;;;;;;15.23;1.83;;;;;;;;;;5133951;27;20066;-66
2022/01/21 13:40:35;;;;;;;10.75;1.63;;;;;;;;;;5137863;27;20052;-66
2022/01/21 13:43:08;;;;;;;15.05;2.10;;;;;;;;;;5132297;27;20048;-68
2022/01/21 13:45:35;;;;;;;11.38;2.20;;;;;;;;;;5133222;27;20515;-68
2022/01/21 13:48:05;;;;;;;32.13;3.60;;;;;;;;;;5145748;27;20917;-68
2022/01/21 13:50:31;;;;;;;11.30;2.33;;;;;;;;;;5142285;27;20066;-68
2022/01/21 13:53:05;;;;;;;12.10;1.48;;;;;;;;;;5130581;27;20493;-68
2022/01/21 13:55:34;;;;;;;15.23;1.80;;;;;;;;;;5137021;27;20071;-68
2022/01/21 13:58:03;;;;;;;9.25;1.88;;;;;;;;;;5139232;27;20146;-68
2022/01/21 14:00:41;;;;;;;13.95;2.78;;;;;;;;;;5151780;27;20053;-66
2022/01/21 14:03:08;;;;;;;;;;;;;;;;;;5145707;27;20160;-68
2022/01/21 14:05:43;;;;;;;11.45;2.15;;;;;;;;;;5133875;27;44142;-68
2022/01/21 14:08:10;;;;;;;13.45;2.00;;;;;;;;;;5144962;27;20173;-66
2022/01/21 14:10:37;;;;;;;14.90;2.67;;;;;;;;;;5133270;27;20142;-66
2022/01/21 14:13:04;;;;;;;13.57;2.00;;;;;;;;;;5131615;27;20581;-66
2022/01/21 14:15:31;;;;;;;17.17;2.38;;;;;;;;;;5130445;27;20056;-64
2022/01/21 14:17:58;;;;;;;14.30;2.00;;;;;;;;;;5130111;27;20174;-65
2022/01/21 14:20:24;;;;;;;14.60;2.22;;;;;;;;;;5131665;27;20051;-65
2022/01/21 14:22:51;;;;;;;12.82;2.30;;;;;;;;;;5130618;27;20060;-67
2022/01/21 14:25:17;;;;;;;10.38;2.10;;;;;;;;;;5139701;27;20061;-65
2022/01/21 14:27:48;;;;;;;18.13;2.60;;;;;;;;;;5150986;27;20436;-67
2022/01/21 14:30:14;;;;;;;12.65;2.78;;;;;;;;;;5149587;27;20727;-67
2022/01/21 14:32:42;;;;;;;17.40;2.55;;;;;;;;;;5148995;27;20050;-66
2022/01/21 14:35:17;;;;;;;14.38;2.10;;;;;;;;;;5136102;27;20059;-67
2022/01/21 14:37:45;;;;;;;12.45;1.90;;;;;;;;;;5139107;27;20060;-67
2022/01/21 14:40:13;;;;;;;18.20;2.13;;;;;;;;;;5146013;27;20149;-67
2022/01/21 14:42:39;;;;;;;9.77;2.15;;;;;;;;;;5129396;27;20061;-66
2022/01/21 14:45:19;;;;;;;15.38;2.00;;;;;;;;;;5130376;27;20142;-65
2022/01/21 14:47:46;;;;;;;19.48;2.38;;;;;;;;;;5130329;27;20051;-66
2022/01/21 14:50:14;;;;;;;11.10;2.25;;;;;;;;;;5128941;27;20055;-67
2022/01/21 14:52:45;;;;;;;14.57;2.03;;;;;;;;;;5130011;27;20482;-65
2022/01/21 14:55:12;;;;;;;12.60;2.15;;;;;;;;;;5138730;27;20066;-65
2022/01/21 14:57:44;;;;;;;15.30;2.17;;;;;;;;;;5130181;27;20058;-66
2022/01/21 15:00:10;;;;;;;16.88;3.20;;;;;;;;;;5129700;27;20531;-67
2022/01/21 15:02:38;;;;;;;15.63;3.28;;;;;;;;;;5135035;27;20085;-65
2022/01/21 15:05:11;;;;;;;16.48;3.25;;;;;;;;;;5132047;27;20445;-66
2022/01/21 15:07:42;;;;;;;16.70;2.85;;;;;;;;;;5131095;27;20090;-66
2022/01/21 15:10:22;;;;;;;20.10;2.53;;;;;;;;;;5140439;27;20512;-66
2022/01/21 15:15:55;;;;;;;18.17;2.30;;;;;;;;;;5131612;27;20052;-66
2022/01/21 15:18:21;;;;;;;14.35;3.38;;;;;;;;;;5142721;27;20161;-66
2022/01/21 15:20:49;;;;;;;15.50;2.60;;;;;;;;;;5149504;27;20140;-66
2022/01/21 15:23:16;;;;;;;11.50;2.10;;;;;;;;;;5139731;27;20085;-66
2022/01/21 15:25:42;;;;;;;15.05;2.83;;;;;;;;;;5129102;27;20429;-65
2022/01/21 15:28:09;;;;;;;10.80;2.63;;;;;;;;;;5135180;27;20046;-65
2022/01/21 15:30:36;;;;;;;16.27;2.25;;;;;;;;;;5149958;27;20055;-66
2022/01/21 15:33:03;;;;;;;13.82;2.35;;;;;;;;;;5133953;27;20056;-66
2022/01/21 15:35:29;;;;;;;15.40;2.92;;;;;;;;;;5129323;27;20154;-65
2022/01/21 15:37:56;;;;;;;17.55;3.00;;;;;;;;;;5135349;27;20055;-66
2022/01/21 15:40:22;;;;;;;19.33;2.92;;;;;;;;;;5136559;27;20062;-65
2022/01/21 15:42:52;;;;;;;14.95;3.00;;;;;;;;;;5144370;27;20083;-65